sensor_id;sensor_type;location;lat;lon;timestamp;pressure;altitude;pressure_sealevel;temperature;humidity
20037;BME280;10179;42.640;23.312;2023-02-04T00:00:21;93450.75;;;5.65;44.00
20037;BME280;10179;42.640;23.312;2023-02-04T00:02:47;93320.28;;;4.81;44.47
20037;BME280;10179;42.640;23.312;2023-02-04T00:05:13;93461.59;;;5.69;45.18
20037;BME280;10179;42.640;23.312;2023-02-04T00:07:40;93057.03;;;3.11;45.72
20037;BME280;10179;42.640;23.312;2023-02-04T00:10:06;93459.16;;;5.61;46.20
20037;BME280;10179;42.640;23.312;2023-02-04T00:12:32;93435.13;;;5.59;46.86
20037;BME280;10179;42.640;23.312;2023-02-04T00:14:59;93442.72;;;5.54;47.48
20037;BME280;10179;42.640;23.312;2023-02-04T00:17:24;93450.34;;;5.48;48.01
20037;BME280;10179;42.640;23.312;2023-02-04T00:19:50;93438.91;;;5.49;47.98
20037;BME280;10179;42.640;23.312;2023-02-04T00:22:15;93434.31;;;5.52;48.35
20037;BME280;10179;42.640;23.312;2023-02-04T00:24:41;93406.84;;;5.42;48.46
20037;BME280;10179;42.640;23.312;2023-02-04T00:27:13;93196.13;;;4.01;48.70
20037;BME280;10179;42.640;23.312;2023-02-04T00:29:38;93395.00;;;5.33;48.90
20037;BME280;10179;42.640;23.312;2023-02-04T00:32:03;93432.69;;;5.57;48.96
20037;BME280;10179;42.640;23.312;2023-02-04T00:34:29;93329.88;;;4.87;49.16
20037;BME280;10179;42.640;23.312;2023-02-04T00:36:54;93268.81;;;4.56;49.46
20037;BME280;10179;42.640;23.312;2023-02-04T00:39:20;93420.28;;;5.46;50.01
20037;BME280;10179;42.640;23.312;2023-02-04T00:41:45;93375.19;;;5.06;50.24
20037;BME280;10179;42.640;23.312;2023-02-04T00:44:11;93327.06;;;4.68;50.50
20037;BME280;10179;42.640;23.312;2023-02-04T00:46:38;93425.84;;;5.30;50.96
20037;BME280;10179;42.640;23.312;2023-02-04T00:49:04;93441.69;;;5.28;51.36
20037;BME280;10179;42.640;23.312;2023-02-04T00:51:30;93374.50;;;4.84;51.55
20037;BME280;10179;42.640;23.312;2023-02-04T00:53:56;93419.03;;;5.22;51.67
20037;BME280;10179;42.640;23.312;2023-02-04T00:56:21;93256.50;;;4.10;51.84
20037;BME280;10179;42.640;23.312;2023-02-04T00:58:47;93361.31;;;4.85;52.19
20037;BME280;10179;42.640;23.312;2023-02-04T01:01:12;93385.75;;;5.04;52.26
20037;BME280;10179;42.640;23.312;2023-02-04T01:03:37;93400.22;;;5.20;52.38
20037;BME280;10179;42.640;23.312;2023-02-04T01:06:03;93297.22;;;4.58;52.42
20037;BME280;10179;42.640;23.312;2023-02-04T01:08:28;93390.22;;;5.17;52.57
20037;BME280;10179;42.640;23.312;2023-02-04T01:10:53;93400.00;;;5.15;52.31
20037;BME280;10179;42.640;23.312;2023-02-04T01:13:19;93371.38;;;5.15;52.60
20037;BME280;10179;42.640;23.312;2023-02-04T01:15:44;93363.97;;;5.12;52.77
20037;BME280;10179;42.640;23.312;2023-02-04T01:18:11;93374.75;;;5.09;52.84
20037;BME280;10179;42.640;23.312;2023-02-04T01:20:37;93360.94;;;5.01;52.96
20037;BME280;10179;42.640;23.312;2023-02-04T01:23:02;93350.94;;;5.12;52.89
20037;BME280;10179;42.640;23.312;2023-02-04T01:25:28;93357.38;;;5.09;52.70
20037;BME280;10179;42.640;23.312;2023-02-04T01:27:53;93329.94;;;5.07;53.10
20037;BME280;10179;42.640;23.312;2023-02-04T01:30:18;93330.50;;;4.82;52.97
20037;BME280;10179;42.640;23.312;2023-02-04T01:32:44;93357.34;;;5.02;53.13
20037;BME280;10179;42.640;23.312;2023-02-04T01:35:09;93347.75;;;5.03;53.14
20037;BME280;10179;42.640;23.312;2023-02-04T01:37:34;93194.16;;;4.17;53.11
20037;BME280;10179;42.640;23.312;2023-02-04T01:40:00;93296.88;;;4.74;53.00
20037;BME280;10179;42.640;23.312;2023-02-04T01:42:25;93400.97;;;5.00;53.26
20037;BME280;10179;42.640;23.312;2023-02-04T01:44:51;93339.53;;;4.99;53.00
20037;BME280;10179;42.640;23.312;2023-02-04T01:47:18;93121.28;;;3.57;53.19
20037;BME280;10179;42.640;23.312;2023-02-04T01:49:46;93329.31;;;4.98;53.41
20037;BME280;10179;42.640;23.312;2023-02-04T01:52:15;93330.53;;;4.95;53.24
20037;BME280;10179;42.640;23.312;2023-02-04T01:54:41;93183.50;;;3.92;53.17
20037;BME280;10179;42.640;23.312;2023-02-04T01:57:12;93341.50;;;4.97;53.44
20037;BME280;10179;42.640;23.312;2023-02-04T01:59:39;93316.91;;;4.93;53.37
20037;BME280;10179;42.640;23.312;2023-02-04T02:02:41;93315.09;;;5.00;53.59
20037;BME280;10179;42.640;23.312;2023-02-04T02:05:17;93307.28;;;5.00;53.64
20037;BME280;10179;42.640;23.312;2023-02-04T02:07:45;93361.16;;;5.00;53.63
20037;BME280;10179;42.640;23.312;2023-02-04T02:10:11;93318.50;;;5.01;53.56
20037;BME280;10179;42.640;23.312;2023-02-04T02:12:38;93282.06;;;4.81;53.69
20037;BME280;10179;42.640;23.312;2023-02-04T02:15:04;93193.19;;;4.31;53.68
20037;BME280;10179;42.640;23.312;2023-02-04T02:17:30;93302.91;;;5.08;53.72
20037;BME280;10179;42.640;23.312;2023-02-04T02:19:55;93165.19;;;4.33;53.46
20037;BME280;10179;42.640;23.312;2023-02-04T02:22:43;93289.69;;;5.16;53.55
20037;BME280;10179;42.640;23.312;2023-02-04T02:25:13;93262.06;;;5.01;53.72
20037;BME280;10179;42.640;23.312;2023-02-04T02:27:39;93265.47;;;5.02;53.57
20037;BME280;10179;42.640;23.312;2023-02-04T02:30:06;93258.47;;;4.96;53.24
20037;BME280;10179;42.640;23.312;2023-02-04T02:32:33;93212.03;;;4.73;53.60
20037;BME280;10179;42.640;23.312;2023-02-04T02:35:00;93237.66;;;5.02;53.49
20037;BME280;10179;42.640;23.312;2023-02-04T02:37:25;93248.84;;;5.10;53.58
20037;BME280;10179;42.640;23.312;2023-02-04T02:39:51;93213.63;;;4.87;53.50
20037;BME280;10179;42.640;23.312;2023-02-04T02:42:18;93190.03;;;4.95;53.55
20037;BME280;10179;42.640;23.312;2023-02-04T02:44:44;93224.81;;;5.08;53.54
20037;BME280;10179;42.640;23.312;2023-02-04T02:47:15;93220.81;;;5.12;53.54
20037;BME280;10179;42.640;23.312;2023-02-04T02:49:42;93233.25;;;5.10;53.32
20037;BME280;10179;42.640;23.312;2023-02-04T02:52:11;93198.81;;;5.08;53.39
20037;BME280;10179;42.640;23.312;2023-02-04T02:54:38;93206.22;;;5.11;53.29
20037;BME280;10179;42.640;23.312;2023-02-04T02:57:11;93210.00;;;5.15;53.37
20037;BME280;10179;42.640;23.312;2023-02-04T02:59:36;93179.63;;;4.95;53.37
20037;BME280;10179;42.640;23.312;2023-02-04T03:02:02;93058.84;;;4.25;53.18
20037;BME280;10179;42.640;23.312;2023-02-04T03:04:31;93202.41;;;5.20;53.42
20037;BME280;10179;42.640;23.312;2023-02-04T03:06:59;93209.19;;;5.21;53.49
20037;BME280;10179;42.640;23.312;2023-02-04T03:09:25;93210.22;;;5.20;53.16
20037;BME280;10179;42.640;23.312;2023-02-04T03:11:51;93205.59;;;5.22;53.20
20037;BME280;10179;42.640;23.312;2023-02-04T03:14:17;93214.00;;;5.24;53.30
20037;BME280;10179;42.640;23.312;2023-02-04T03:16:43;93219.00;;;5.25;53.20
20037;BME280;10179;42.640;23.312;2023-02-04T03:19:09;93220.63;;;5.26;53.08
20037;BME280;10179;42.640;23.312;2023-02-04T03:21:35;93052.03;;;4.11;53.06
20037;BME280;10179;42.640;23.312;2023-02-04T03:24:02;93240.03;;;5.24;53.06
20037;BME280;10179;42.640;23.312;2023-02-04T03:26:28;93229.63;;;5.24;53.09
20037;BME280;10179;42.640;23.312;2023-02-04T03:28:53;93222.81;;;5.23;53.18
20037;BME280;10179;42.640;23.312;2023-02-04T03:31:19;93218.03;;;5.20;52.99
20037;BME280;10179;42.640;23.312;2023-02-04T03:33:45;93213.78;;;5.19;53.16
20037;BME280;10179;42.640;23.312;2023-02-04T03:36:10;93213.78;;;5.19;53.14
20037;BME280;10179;42.640;23.312;2023-02-04T03:38:36;93222.00;;;5.16;53.22
20037;BME280;10179;42.640;23.312;2023-02-04T03:41:01;93228.44;;;5.20;53.50
20037;BME280;10179;42.640;23.312;2023-02-04T03:43:27;93180.59;;;5.01;53.37
20037;BME280;10179;42.640;23.312;2023-02-04T03:45:52;92869.50;;;3.04;53.15
20037;BME280;10179;42.640;23.312;2023-02-04T03:48:17;93038.28;;;3.02;53.37
20037;BME280;10179;42.640;23.312;2023-02-04T03:50:43;93195.97;;;5.29;53.31
20037;BME280;10179;42.640;23.312;2023-02-04T03:53:09;93098.59;;;4.85;53.36
20037;BME280;10179;42.640;23.312;2023-02-04T03:55:34;93175.13;;;5.29;53.04
20037;BME280;10179;42.640;23.312;2023-02-04T03:58:03;93155.94;;;5.30;53.43
20037;BME280;10179;42.640;23.312;2023-02-04T04:00:29;93065.22;;;4.55;53.92
20037;BME280;10179;42.640;23.312;2023-02-04T04:02:56;93150.66;;;5.43;53.36
20037;BME280;10179;42.640;23.312;2023-02-04T04:05:22;93132.69;;;5.29;53.11
20037;BME280;10179;42.640;23.312;2023-02-04T04:07:49;93132.63;;;5.48;53.04
20037;BME280;10179;42.640;23.312;2023-02-04T04:10:14;93117.00;;;5.48;52.93
20037;BME280;10179;42.640;23.312;2023-02-04T04:12:40;93104.97;;;5.47;52.78
20037;BME280;10179;42.640;23.312;2023-02-04T04:15:06;92996.72;;;4.88;52.86
20037;BME280;10179;42.640;23.312;2023-02-04T04:17:31;93125.72;;;5.67;52.54
20037;BME280;10179;42.640;23.312;2023-02-04T04:19:57;93121.66;;;5.78;52.63
20037;BME280;10179;42.640;23.312;2023-02-04T04:22:22;93113.34;;;5.63;52.08
20037;BME280;10179;42.640;23.312;2023-02-04T04:24:47;93096.44;;;5.72;52.19
20037;BME280;10179;42.640;23.312;2023-02-04T04:27:13;92858.16;;;4.23;51.42
20037;BME280;10179;42.640;23.312;2023-02-04T04:29:38;93129.25;;;5.86;51.63
20037;BME280;10179;42.640;23.312;2023-02-04T04:32:04;93144.44;;;5.89;51.47
20037;BME280;10179;42.640;23.312;2023-02-04T04:34:30;93155.69;;;5.90;51.16
20037;BME280;10179;42.640;23.312;2023-02-04T04:36:55;93124.13;;;5.66;50.94
20037;BME280;10179;42.640;23.312;2023-02-04T04:39:21;93142.69;;;5.83;51.29
20037;BME280;10179;42.640;23.312;2023-02-04T04:41:46;93159.75;;;5.79;51.45
20037;BME280;10179;42.640;23.312;2023-02-04T04:44:12;93176.19;;;5.80;51.75
20037;BME280;10179;42.640;23.312;2023-02-04T04:46:37;93046.31;;;5.00;51.60
20037;BME280;10179;42.640;23.312;2023-02-04T04:49:05;93172.19;;;5.77;51.86
20037;BME280;10179;42.640;23.312;2023-02-04T04:51:31;93094.63;;;5.34;52.31
20037;BME280;10179;42.640;23.312;2023-02-04T04:53:57;93086.94;;;5.53;52.63
20037;BME280;10179;42.640;23.312;2023-02-04T04:56:22;93094.44;;;5.74;52.59
20037;BME280;10179;42.640;23.312;2023-02-04T04:58:47;93155.88;;;6.33;51.69
20037;BME280;10179;42.640;23.312;2023-02-04T05:01:13;93055.66;;;5.91;50.63
20037;BME280;10179;42.640;23.312;2023-02-04T05:03:38;93154.88;;;6.84;49.71
20037;BME280;10179;42.640;23.312;2023-02-04T05:06:04;93154.41;;;6.94;50.00
20037;BME280;10179;42.640;23.312;2023-02-04T05:08:29;93140.56;;;6.93;49.33
20037;BME280;10179;42.640;23.312;2023-02-04T05:10:55;93128.94;;;6.89;49.67
20037;BME280;10179;42.640;23.312;2023-02-04T05:13:20;93050.47;;;6.66;49.24
20037;BME280;10179;42.640;23.312;2023-02-04T05:15:48;93154.53;;;7.43;49.46
20037;BME280;10179;42.640;23.312;2023-02-04T05:18:13;93112.16;;;7.22;49.50
20037;BME280;10179;42.640;23.312;2023-02-04T05:20:38;93190.09;;;7.62;48.58
20037;BME280;10179;42.640;23.312;2023-02-04T05:23:04;93157.06;;;7.68;48.60
20037;BME280;10179;42.640;23.312;2023-02-04T05:25:29;93181.53;;;7.73;48.30
20037;BME280;10179;42.640;23.312;2023-02-04T05:27:55;93167.13;;;7.82;47.55
20037;BME280;10179;42.640;23.312;2023-02-04T05:30:20;93167.28;;;7.87;47.14
20037;BME280;10179;42.640;23.312;2023-02-04T05:32:45;93151.03;;;7.67;47.00
20037;BME280;10179;42.640;23.312;2023-02-04T05:35:11;93190.38;;;7.91;47.26
20037;BME280;10179;42.640;23.312;2023-02-04T05:37:36;93200.19;;;7.95;47.09
20037;BME280;10179;42.640;23.312;2023-02-04T05:40:02;93210.19;;;7.98;47.04
20037;BME280;10179;42.640;23.312;2023-02-04T05:42:28;93202.56;;;7.97;47.12
20037;BME280;10179;42.640;23.312;2023-02-04T05:44:53;93214.34;;;7.87;46.83
20037;BME280;10179;42.640;23.312;2023-02-04T05:47:19;93227.13;;;7.96;46.78
20037;BME280;10179;42.640;23.312;2023-02-04T05:49:44;93237.56;;;7.96;46.84
20037;BME280;10179;42.640;23.312;2023-02-04T05:52:10;93226.69;;;7.80;47.21
20037;BME280;10179;42.640;23.312;2023-02-04T05:54:37;93095.16;;;6.94;47.62
20037;BME280;10179;42.640;23.312;2023-02-04T05:57:02;93180.72;;;7.36;48.09
20037;BME280;10179;42.640;23.312;2023-02-04T05:59:28;93071.66;;;6.76;47.93
20037;BME280;10179;42.640;23.312;2023-02-04T06:01:53;93189.81;;;7.70;47.93
20037;BME280;10179;42.640;23.312;2023-02-04T06:04:18;92829.06;;;5.41;47.63
20037;BME280;10179;42.640;23.312;2023-02-04T06:06:44;93190.09;;;7.62;47.69
20037;BME280;10179;42.640;23.312;2023-02-04T06:09:09;93184.28;;;7.60;47.11
20037;BME280;10179;42.640;23.312;2023-02-04T06:11:35;93173.25;;;7.58;46.54
20037;BME280;10179;42.640;23.312;2023-02-04T06:14:00;93188.91;;;7.58;46.04
20037;BME280;10179;42.640;23.312;2023-02-04T06:16:26;93192.72;;;7.62;45.63
20037;BME280;10179;42.640;23.312;2023-02-04T06:18:51;93199.47;;;7.70;45.34
20037;BME280;10179;42.640;23.312;2023-02-04T06:21:17;93100.25;;;7.08;44.55
20037;BME280;10179;42.640;23.312;2023-02-04T06:23:42;93221.03;;;7.83;44.99
20037;BME280;10179;42.640;23.312;2023-02-04T06:26:08;93228.28;;;8.00;44.69
20037;BME280;10179;42.640;23.312;2023-02-04T06:28:33;93211.34;;;8.02;44.50
20037;BME280;10179;42.640;23.312;2023-02-04T06:30:59;92880.69;;;6.12;44.30
20037;BME280;10179;42.640;23.312;2023-02-04T06:33:24;93216.13;;;8.24;44.09
20037;BME280;10179;42.640;23.312;2023-02-04T06:35:49;93061.66;;;7.28;43.33
20037;BME280;10179;42.640;23.312;2023-02-04T06:38:15;93120.72;;;7.66;43.20
20037;BME280;10179;42.640;23.312;2023-02-04T06:40:41;93206.75;;;8.16;42.42
20037;BME280;10179;42.640;23.312;2023-02-04T06:43:06;93204.38;;;8.15;42.58
20037;BME280;10179;42.640;23.312;2023-02-04T06:45:32;93212.72;;;8.23;42.38
20037;BME280;10179;42.640;23.312;2023-02-04T06:47:57;93218.22;;;8.33;42.22
20037;BME280;10179;42.640;23.312;2023-02-04T06:50:23;93225.78;;;8.42;42.20
20037;BME280;10179;42.640;23.312;2023-02-04T06:52:48;92885.06;;;6.37;42.32
20037;BME280;10179;42.640;23.312;2023-02-04T06:55:14;93058.56;;;7.68;41.92
20037;BME280;10179;42.640;23.312;2023-02-04T06:57:40;93210.31;;;8.82;41.72
20037;BME280;10179;42.640;23.312;2023-02-04T07:00:07;93213.19;;;9.04;41.73
20037;BME280;10179;42.640;23.312;2023-02-04T07:02:33;93127.63;;;8.63;41.45
20037;BME280;10179;42.640;23.312;2023-02-04T07:04:58;93197.63;;;9.21;41.02
20037;BME280;10179;42.640;23.312;2023-02-04T07:07:25;93213.56;;;9.43;40.58
20037;BME280;10179;42.640;23.312;2023-02-04T07:09:51;93212.63;;;9.61;40.58
20037;BME280;10179;42.640;23.312;2023-02-04T07:12:17;93203.28;;;9.65;40.46
20037;BME280;10179;42.640;23.312;2023-02-04T07:14:43;93207.25;;;9.91;39.88
20037;BME280;10179;42.640;23.312;2023-02-04T07:17:08;93208.59;;;10.05;39.78
20037;BME280;10179;42.640;23.312;2023-02-04T07:19:33;93196.56;;;10.21;39.62
20037;BME280;10179;42.640;23.312;2023-02-04T07:22:00;93200.31;;;10.37;39.25
20037;BME280;10179;42.640;23.312;2023-02-04T07:24:26;93200.34;;;10.54;39.07
20037;BME280;10179;42.640;23.312;2023-02-04T07:26:51;93156.56;;;10.42;38.27
20037;BME280;10179;42.640;23.312;2023-02-04T07:29:17;93185.00;;;10.62;38.37
20037;BME280;10179;42.640;23.312;2023-02-04T07:31:43;93179.03;;;10.67;37.87
20037;BME280;10179;42.640;23.312;2023-02-04T07:34:13;93146.41;;;10.63;37.72
20037;BME280;10179;42.640;23.312;2023-02-04T07:36:39;93070.75;;;10.14;37.41
20037;BME280;10179;42.640;23.312;2023-02-04T07:39:06;93178.13;;;10.90;37.34
20037;BME280;10179;42.640;23.312;2023-02-04T07:41:31;93170.09;;;10.96;37.36
20037;BME280;10179;42.640;23.312;2023-02-04T07:43:57;93185.75;;;11.08;37.28
20037;BME280;10179;42.640;23.312;2023-02-04T07:46:22;93150.00;;;11.07;36.98
20037;BME280;10179;42.640;23.312;2023-02-04T07:48:47;93053.84;;;10.39;36.53
20037;BME280;10179;42.640;23.312;2023-02-04T07:51:13;93049.97;;;10.41;36.75
20037;BME280;10179;42.640;23.312;2023-02-04T07:53:38;93146.13;;;10.93;36.60
20037;BME280;10179;42.640;23.312;2023-02-04T07:56:04;93154.06;;;10.98;36.68
20037;BME280;10179;42.640;23.312;2023-02-04T07:58:29;93145.81;;;10.89;36.84
20037;BME280;10179;42.640;23.312;2023-02-04T08:00:55;93173.50;;;10.97;36.82
20037;BME280;10179;42.640;23.312;2023-02-04T08:03:20;93168.56;;;10.84;37.02
20037;BME280;10179;42.640;23.312;2023-02-04T08:05:45;93173.13;;;10.60;37.36
20037;BME280;10179;42.640;23.312;2023-02-04T08:08:11;93175.22;;;10.58;37.61
20037;BME280;10179;42.640;23.312;2023-02-04T08:10:36;93186.78;;;10.45;37.91
20037;BME280;10179;42.640;23.312;2023-02-04T08:13:02;93177.19;;;10.22;38.20
20037;BME280;10179;42.640;23.312;2023-02-04T08:15:27;93190.97;;;10.17;38.71
20037;BME280;10179;42.640;23.312;2023-02-04T08:17:52;93181.00;;;10.02;38.95
20037;BME280;10179;42.640;23.312;2023-02-04T08:20:18;93187.41;;;9.95;39.29
20037;BME280;10179;42.640;23.312;2023-02-04T08:22:44;93127.06;;;9.43;39.43
20037;BME280;10179;42.640;23.312;2023-02-04T08:25:10;93193.00;;;9.75;39.72
20037;BME280;10179;42.640;23.312;2023-02-04T08:27:36;93162.84;;;9.49;39.98
20037;BME280;10179;42.640;23.312;2023-02-04T08:30:03;93185.19;;;9.63;40.01
20037;BME280;10179;42.640;23.312;2023-02-04T08:32:28;93181.97;;;9.61;40.26
20037;BME280;10179;42.640;23.312;2023-02-04T08:34:55;93177.75;;;9.60;40.41
20037;BME280;10179;42.640;23.312;2023-02-04T08:37:21;93163.06;;;9.47;40.42
20037;BME280;10179;42.640;23.312;2023-02-04T08:39:47;93188.16;;;9.55;40.46
20037;BME280;10179;42.640;23.312;2023-02-04T08:42:13;93099.53;;;9.05;40.81
20037;BME280;10179;42.640;23.312;2023-02-04T08:44:39;93151.13;;;9.28;41.01
20037;BME280;10179;42.640;23.312;2023-02-04T08:47:05;93168.47;;;9.41;41.32
20037;BME280;10179;42.640;23.312;2023-02-04T08:49:30;93142.25;;;9.17;41.23
20037;BME280;10179;42.640;23.312;2023-02-04T08:51:56;92905.97;;;7.69;41.16
20037;BME280;10179;42.640;23.312;2023-02-04T08:54:21;93157.16;;;9.28;41.35
20037;BME280;10179;42.640;23.312;2023-02-04T08:56:46;93155.25;;;9.24;41.08
20037;BME280;10179;42.640;23.312;2023-02-04T08:59:12;93131.66;;;9.12;41.52
20037;BME280;10179;42.640;23.312;2023-02-04T09:01:37;93145.22;;;9.09;41.08
20037;BME280;10179;42.640;23.312;2023-02-04T09:04:03;93161.94;;;9.08;41.23
20037;BME280;10179;42.640;23.312;2023-02-04T09:06:28;92997.28;;;8.18;41.46
20037;BME280;10179;42.640;23.312;2023-02-04T09:08:53;93146.00;;;9.21;40.66
20037;BME280;10179;42.640;23.312;2023-02-04T09:11:19;93065.97;;;8.67;40.70
20037;BME280;10179;42.640;23.312;2023-02-04T09:13:44;93157.63;;;9.25;40.69
20037;BME280;10179;42.640;23.312;2023-02-04T09:16:09;93115.25;;;9.05;40.71
20037;BME280;10179;42.640;23.312;2023-02-04T09:18:35;93082.91;;;8.88;40.73
20037;BME280;10179;42.640;23.312;2023-02-04T09:21:01;93141.22;;;9.30;40.30
20037;BME280;10179;42.640;23.312;2023-02-04T09:23:26;93105.22;;;9.02;39.95
20037;BME280;10179;42.640;23.312;2023-02-04T09:25:52;93141.78;;;9.32;39.78
20037;BME280;10179;42.640;23.312;2023-02-04T09:28:17;93050.03;;;8.68;40.00
20037;BME280;10179;42.640;23.312;2023-02-04T09:30:44;93160.72;;;9.34;40.30
20037;BME280;10179;42.640;23.312;2023-02-04T09:33:11;93147.38;;;9.36;40.60
20037;BME280;10179;42.640;23.312;2023-02-04T09:35:37;93152.59;;;9.36;40.81
20037;BME280;10179;42.640;23.312;2023-02-04T09:38:02;93107.97;;;9.07;41.65
20037;BME280;10179;42.640;23.312;2023-02-04T09:40:32;93162.41;;;9.28;41.99
20037;BME280;10179;42.640;23.312;2023-02-04T09:42:59;93060.63;;;8.62;42.49
20037;BME280;10179;42.640;23.312;2023-02-04T09:45:27;93142.03;;;9.19;42.91
20037;BME280;10179;42.640;23.312;2023-02-04T09:47:54;93123.56;;;9.02;43.15
20037;BME280;10179;42.640;23.312;2023-02-04T09:50:22;93139.16;;;9.08;43.84
20037;BME280;10179;42.640;23.312;2023-02-04T09:52:50;93119.13;;;8.91;44.41
20037;BME280;10179;42.640;23.312;2023-02-04T09:55:18;93129.25;;;8.87;44.40
20037;BME280;10179;42.640;23.312;2023-02-04T09:57:46;93127.91;;;8.96;44.66
20037;BME280;10179;42.640;23.312;2023-02-04T10:00:21;93014.59;;;8.30;44.91
20037;BME280;10179;42.640;23.312;2023-02-04T10:02:47;93123.00;;;9.00;44.38
20037;BME280;10179;42.640;23.312;2023-02-04T10:05:15;93091.00;;;8.86;44.20
20037;BME280;10179;42.640;23.312;2023-02-04T10:07:43;93036.28;;;8.61;44.08
20037;BME280;10179;42.640;23.312;2023-02-04T10:10:18;93079.31;;;8.89;43.84
20037;BME280;10179;42.640;23.312;2023-02-04T10:12:45;93117.31;;;9.03;43.35
20037;BME280;10179;42.640;23.312;2023-02-04T10:15:18;93080.88;;;8.90;43.52
20037;BME280;10179;42.640;23.312;2023-02-04T10:17:47;93108.06;;;9.12;42.96
20037;BME280;10179;42.640;23.312;2023-02-04T10:20:18;92991.91;;;8.43;42.77
20037;BME280;10179;42.640;23.312;2023-02-04T10:22:44;93120.03;;;9.08;43.15
20037;BME280;10179;42.640;23.312;2023-02-04T10:25:15;93059.81;;;8.96;43.65
20037;BME280;10179;42.640;23.312;2023-02-04T10:27:57;93067.69;;;8.96;43.73
20037;BME280;10179;42.640;23.312;2023-02-04T10:32:51;93087.94;;;9.01;43.57
20037;BME280;10179;42.640;23.312;2023-02-04T10:35:18;93098.88;;;8.98;43.85
20037;BME280;10179;42.640;23.312;2023-02-04T10:37:45;93002.66;;;8.34;44.25
20037;BME280;10179;42.640;23.312;2023-02-04T10:40:30;93101.03;;;9.01;45.10
20037;BME280;10179;42.640;23.312;2023-02-04T10:42:56;93005.81;;;8.25;45.59
20037;BME280;10179;42.640;23.312;2023-02-04T10:45:26;93090.34;;;8.79;46.36
20037;BME280;10179;42.640;23.312;2023-02-04T10:47:53;93096.91;;;8.70;46.73
20037;BME280;10179;42.640;23.312;2023-02-04T10:50:22;93068.00;;;8.53;47.07
20037;BME280;10179;42.640;23.312;2023-02-04T10:52:51;93093.84;;;8.61;47.32
20037;BME280;10179;42.640;23.312;2023-02-04T10:55:19;93061.88;;;8.47;47.25
20037;BME280;10179;42.640;23.312;2023-02-04T10:57:47;93057.19;;;8.49;47.61
20037;BME280;10179;42.640;23.312;2023-02-04T11:00:24;93054.00;;;8.59;47.35
20037;BME280;10179;42.640;23.312;2023-02-04T11:02:58;93085.66;;;8.69;46.73
20037;BME280;10179;42.640;23.312;2023-02-04T11:05:33;93021.69;;;8.42;46.94
20037;BME280;10179;42.640;23.312;2023-02-04T11:08:00;92983.31;;;8.12;46.63
20037;BME280;10179;42.640;23.312;2023-02-04T11:10:31;93048.91;;;8.76;46.08
20037;BME280;10179;42.640;23.312;2023-02-04T11:18:26;92978.03;;;8.54;44.97
20037;BME280;10179;42.640;23.312;2023-02-04T11:20:54;92739.63;;;7.04;44.41
20037;BME280;10179;42.640;23.312;2023-02-04T11:23:39;93053.75;;;9.19;44.23
20037;BME280;10179;42.640;23.312;2023-02-04T11:26:13;92995.72;;;8.87;44.45
20037;BME280;10179;42.640;23.312;2023-02-04T11:28:55;92921.25;;;8.43;44.20
20037;BME280;10179;42.640;23.312;2023-02-04T11:33:48;93061.72;;;9.24;44.30
20037;BME280;10179;42.640;23.312;2023-02-04T11:36:14;93066.97;;;9.24;44.47
20037;BME280;10179;42.640;23.312;2023-02-04T11:38:48;93032.00;;;9.19;44.39
20037;BME280;10179;42.640;23.312;2023-02-04T11:41:20;93063.09;;;9.27;44.44
20037;BME280;10179;42.640;23.312;2023-02-04T11:43:50;93037.22;;;9.19;44.61
20037;BME280;10179;42.640;23.312;2023-02-04T11:46:16;93058.84;;;9.26;44.41
20037;BME280;10179;42.640;23.312;2023-02-04T11:48:42;92942.75;;;8.45;44.53
20037;BME280;10179;42.640;23.312;2023-02-04T11:51:12;93063.63;;;9.29;44.68
20037;BME280;10179;42.640;23.312;2023-02-04T11:53:38;93059.97;;;9.30;44.95
20037;BME280;10179;42.640;23.312;2023-02-04T11:56:04;92967.31;;;8.67;45.21
20037;BME280;10179;42.640;23.312;2023-02-04T11:58:30;92978.66;;;8.73;44.89
20037;BME280;10179;42.640;23.312;2023-02-04T12:00:55;92998.69;;;8.91;45.09
20037;BME280;10179;42.640;23.312;2023-02-04T12:03:29;93050.44;;;9.24;45.10
20037;BME280;10179;42.640;23.312;2023-02-04T12:05:55;93067.50;;;9.26;45.17
20037;BME280;10179;42.640;23.312;2023-02-04T12:11:22;93050.13;;;9.20;45.57
20037;BME280;10179;42.640;23.312;2023-02-04T12:13:53;92992.88;;;8.77;46.08
20037;BME280;10179;42.640;23.312;2023-02-04T12:16:19;93018.16;;;8.83;46.17
20037;BME280;10179;42.640;23.312;2023-02-04T12:18:44;92892.69;;;8.06;46.50
20037;BME280;10179;42.640;23.312;2023-02-04T12:21:10;92978.56;;;8.56;46.93
20037;BME280;10179;42.640;23.312;2023-02-04T12:23:35;93056.41;;;8.96;47.26
20037;BME280;10179;42.640;23.312;2023-02-04T12:26:01;93002.03;;;8.51;47.55
20037;BME280;10179;42.640;23.312;2023-02-04T12:28:27;93055.72;;;8.89;47.61
20037;BME280;10179;42.640;23.312;2023-02-04T12:30:53;93054.59;;;8.84;47.69
20037;BME280;10179;42.640;23.312;2023-02-04T12:33:18;93050.38;;;8.83;47.90
20037;BME280;10179;42.640;23.312;2023-02-04T12:35:45;93045.59;;;8.80;47.92
20037;BME280;10179;42.640;23.312;2023-02-04T12:38:10;93016.13;;;8.62;47.83
20037;BME280;10179;42.640;23.312;2023-02-04T12:40:36;93040.94;;;8.82;47.55
20037;BME280;10179;42.640;23.312;2023-02-04T12:43:01;93043.09;;;8.86;47.53
20037;BME280;10179;42.640;23.312;2023-02-04T12:45:27;93012.81;;;8.66;47.18
20037;BME280;10179;42.640;23.312;2023-02-04T12:47:52;92940.69;;;8.23;46.86
20037;BME280;10179;42.640;23.312;2023-02-04T12:50:18;93040.69;;;8.96;46.42
20037;BME280;10179;42.640;23.312;2023-02-04T12:52:54;93013.50;;;8.73;45.80
20037;BME280;10179;42.640;23.312;2023-02-04T12:55:21;93045.34;;;8.94;45.56
20037;BME280;10179;42.640;23.312;2023-02-04T12:57:47;92788.25;;;7.29;45.71
20037;BME280;10179;42.640;23.312;2023-02-04T13:00:13;93044.44;;;9.00;45.50
20037;BME280;10179;42.640;23.312;2023-02-04T13:02:39;93008.25;;;8.73;45.23
20037;BME280;10179;42.640;23.312;2023-02-04T13:05:05;93035.00;;;8.99;45.33
20037;BME280;10179;42.640;23.312;2023-02-04T13:07:31;92733.28;;;6.88;45.17
20037;BME280;10179;42.640;23.312;2023-02-04T13:09:57;93048.09;;;8.99;45.36